Time;durP1;ratioP1;P1;durP2;ratioP2;P2;SDS_P1;SDS_P2;PMS_P1;PMS_P2;Temp;Humidity;BMP_temperature;BMP_pressure;BME280_temperature;BME280_humidity;BME280_pressure;Samples;Min_cycle;Max_cycle;Signal;HPM_P1;HPM_P2
2022/08/26 00:02:19;;;;;;;0.63;0.63;;;;;;;22.72;56.15;96375.94;10486464;28;20040;-29
2022/08/26 00:07:20;;;;;;;0.30;0.30;;;;;;;22.76;55.94;96377.56;10485753;28;20062;-28
2022/08/26 00:12:20;;;;;;;0.60;0.60;;;;;;;22.64;56.12;96380.38;10488099;28;20115;-30
2022/08/26 00:17:20;;;;;;;0.70;0.70;;;;;;;22.62;56.32;96381.28;10486654;28;20111;-30
2022/08/26 00:22:21;;;;;;;0.90;0.70;;;;;;;22.59;56.10;96374.53;10485824;28;20043;-30
2022/08/26 00:27:21;;;;;;;0.60;0.60;;;;;;;22.55;56.06;96372.91;10486499;28;20036;-28
2022/08/26 00:32:21;;;;;;;0.80;0.80;;;;;;;22.57;56.23;96371.16;10482575;28;20036;-29
2022/08/26 00:37:22;;;;;;;0.60;0.60;;;;;;;22.53;55.84;96377.22;10485935;28;20411;-29
2022/08/26 00:42:23;;;;;;;0.70;0.70;;;;;;;22.54;56.74;96378.03;10485686;28;20148;-29
2022/08/26 00:47:28;;;;;;;1.20;0.90;;;;;;;22.73;56.32;96374.25;10482330;28;20029;-29
2022/08/26 00:52:29;;;;;;;0.47;0.47;;;;;;;22.74;56.02;96375.91;10484821;28;20147;-29
2022/08/26 00:57:30;;;;;;;0.50;0.50;;;;;;;22.60;56.05;96375.38;10487070;28;20044;-30
2022/08/26 01:02:31;;;;;;;0.40;0.40;;;;;;;22.55;55.93;96372.91;10486480;28;20063;-29
2022/08/26 01:07:33;;;;;;;0.60;0.60;;;;;;;22.51;55.94;96378.13;10484475;28;20056;-29
2022/08/26 01:12:39;;;;;;;0.60;0.60;;;;;;;22.51;56.02;96373.88;10483568;28;20063;-29
2022/08/26 01:17:40;;;;;;;0.60;0.60;;;;;;;22.50;55.85;96382.38;10486091;28;20087;-29
2022/08/26 01:23:03;;;;;;;0.80;0.80;;;;;;;22.49;55.93;96384.97;10490012;28;20041;-29
2022/08/26 01:28:08;;;;;;;0.60;0.60;;;;;;;22.53;57.61;96377.22;10494852;28;20035;-30
2022/08/26 01:33:13;;;;;;;0.65;0.65;;;;;;;22.73;56.48;96380.16;10492573;28;20403;-29
2022/08/26 01:38:14;;;;;;;0.50;0.50;;;;;;;22.71;55.79;96381.94;10490225;28;20040;-29
2022/08/26 01:43:20;;;;;;;1.52;0.50;;;;;;;22.59;55.93;96387.31;10493022;28;20040;-29
2022/08/26 01:48:23;;;;;;;;;;;;;;;22.55;56.12;96385.69;10491249;28;20048;-30
2022/08/26 01:53:25;;;;;;;0.73;0.73;;;;;;;22.52;56.04;96390.84;10489850;28;19922;-29
2022/08/26 01:58:33;;;;;;;1.05;0.77;;;;;;;22.51;56.04;96398.53;10493143;28;20040;-29
2022/08/26 02:03:41;;;;;;;0.52;0.52;;;;;;;22.51;56.03;96406.19;10486905;28;20055;-31
2022/08/26 02:08:49;;;;;;;0.70;0.70;;;;;;;22.47;55.99;96394.38;10490716;28;20125;-30
2022/08/26 02:13:54;;;;;;;0.57;0.57;;;;;;;22.57;56.85;96403.50;10492203;28;20033;-30
2022/08/26 02:18:54;;;;;;;0.60;0.60;;;;;;;22.77;56.55;96404.78;10484928;28;20032;-28
2022/08/26 02:23:55;;;;;;;0.40;0.40;;;;;;;22.72;56.21;96403.19;10487815;28;20406;-29
2022/08/26 02:29:04;;;;;;;0.70;0.65;;;;;;;22.64;56.09;96405.06;10491921;28;20025;-30
2022/08/26 02:34:13;;;;;;;0.60;0.60;;;;;;;22.56;55.80;96400.13;10483528;28;20036;-29
2022/08/26 02:39:15;;;;;;;0.63;0.63;;;;;;;22.56;55.91;96400.13;10487446;28;20098;-30
2022/08/26 02:44:16;;;;;;;0.80;0.80;;;;;;;22.53;55.79;96392.53;10491054;28;20032;-30
2022/08/26 02:49:16;;;;;;;0.68;0.68;;;;;;;22.54;56.22;96394.22;10489983;28;20040;-28
2022/08/26 02:54:20;;;;;;;0.82;0.82;;;;;;;22.53;55.96;96389.97;10487237;28;20039;-29
2022/08/26 02:59:20;;;;;;;0.43;0.43;;;;;;;22.62;56.66;96396.59;10490614;28;20033;-29
2022/08/26 03:04:20;;;;;;;0.50;0.50;;;;;;;22.73;56.35;96385.28;10489393;28;20036;-29
2022/08/26 03:09:21;;;;;;;0.43;0.43;;;;;;;22.68;56.08;96392.22;10488152;28;20036;-30
2022/08/26 03:14:24;;;;;;;0.82;0.82;;;;;;;22.58;55.96;96385.59;10489530;28;20052;-30
2022/08/26 03:19:25;;;;;;;0.70;0.70;;;;;;;22.54;55.94;96393.34;10487107;28;20396;-29
2022/08/26 03:24:25;;;;;;;0.70;0.70;;;;;;;22.52;55.90;96390.00;10485609;28;20068;-29
2022/08/26 03:34:45;;;;;;;1.75;0.82;;;;;;;22.52;56.03;96395.09;10484349;28;20086;-29
2022/08/26 03:39:46;;;;;;;0.80;0.80;;;;;;;22.53;56.23;96402.75;10488000;28;20089;-30
2022/08/26 03:44:47;;;;;;;0.50;0.50;;;;;;;22.65;56.31;96394.00;10487897;28;20028;-29
2022/08/26 03:49:47;;;;;;;0.50;0.50;;;;;;;22.81;56.00;96398.72;10488737;28;20032;-29
2022/08/26 03:54:48;;;;;;;0.30;0.30;;;;;;;22.65;56.04;96392.25;10486256;28;20556;-30
2022/08/26 03:59:48;;;;;;;0.73;0.73;;;;;;;22.57;55.80;96399.22;10488747;28;20651;-31
2022/08/26 04:04:50;;;;;;;0.50;0.50;;;;;;;22.54;55.56;96398.47;10486516;28;20052;-30
2022/08/26 04:09:55;;;;;;;0.60;0.60;;;;;;;22.51;55.76;96389.19;10486460;28;20032;-29
2022/08/26 04:14:55;;;;;;;0.75;0.75;;;;;;;22.49;55.83;96388.34;10486029;28;20116;-29
2022/08/26 04:19:56;;;;;;;0.70;0.70;;;;;;;22.54;56.19;96398.47;10486858;28;20032;-30
2022/08/26 04:24:56;;;;;;;0.70;0.70;;;;;;;22.54;55.99;96393.34;10483949;28;20509;-30
2022/08/26 04:29:57;;;;;;;0.50;0.50;;;;;;;22.67;56.37;96398.19;10487963;28;20025;-30
2022/08/26 04:34:57;;;;;;;0.52;0.52;;;;;;;22.83;55.86;96396.97;10482377;28;20032;-30
2022/08/26 04:39:57;;;;;;;0.87;0.70;;;;;;;22.68;56.13;96387.09;10486709;28;20036;-29
2022/08/26 04:44:58;;;;;;;0.50;0.50;;;;;;;22.63;56.37;96388.91;10487424;28;20063;-29
2022/08/26 04:49:59;;;;;;;0.93;0.93;;;;;;;22.63;56.33;96390.59;10483872;28;20039;-29
2022/08/26 04:54:59;;;;;;;0.82;0.82;;;;;;;22.58;56.13;96388.16;10492390;28;20544;-29
2022/08/26 04:59:59;;;;;;;0.85;0.85;;;;;;;22.59;55.97;96402.63;10493290;28;20064;-29
2022/08/26 05:05:00;;;;;;;1.30;1.00;;;;;;;22.54;55.97;96404.41;10494473;28;20032;-29
2022/08/26 05:10:01;;;;;;;1.45;1.17;;;;;;;22.53;55.82;96412.09;10493072;28;20211;-29
2022/08/26 05:15:02;;;;;;;0.50;0.50;;;;;;;22.64;56.36;96415.28;10494363;28;20032;-29
2022/08/26 05:20:03;;;;;;;0.60;0.60;;;;;;;22.81;55.80;96408.09;10491685;28;20040;-29
2022/08/26 05:25:04;;;;;;;0.52;0.52;;;;;;;22.68;56.14;96410.06;10490188;28;20031;-30
2022/08/26 05:30:05;;;;;;;0.70;0.70;;;;;;;22.58;55.86;96406.00;10493605;28;20600;-30
2022/08/26 05:35:06;;;;;;;0.98;0.90;;;;;;;22.56;55.85;96412.03;10493384;28;20043;-29
2022/08/26 05:40:06;;;;;;;0.70;0.70;;;;;;;22.51;55.82;96399.38;10490289;28;20068;-29
2022/08/26 05:45:07;;;;;;;1.20;0.75;;;;;;;22.51;55.95;96404.50;10492864;28;20050;-29
2022/08/26 05:50:08;;;;;;;0.80;0.80;;;;;;;22.53;55.95;96410.41;10490832;28;20118;-29
2022/08/26 05:55:08;;;;;;;0.70;0.70;;;;;;;22.57;56.16;96414.53;10491087;28;20449;-29
2022/08/26 06:00:11;;;;;;;0.70;0.70;;;;;;;22.67;56.36;96418.59;10493027;28;20066;-29
2022/08/26 06:05:12;;;;;;;0.45;0.45;;;;;;;22.79;55.80;96410.69;10488288;28;20043;-29
2022/08/26 06:10:13;;;;;;;0.60;0.60;;;;;;;22.67;55.69;96421.16;10490632;28;20376;-30
2022/08/26 06:15:14;;;;;;;1.00;0.85;;;;;;;22.63;56.09;96421.22;10492305;28;20056;-29
2022/08/26 06:20:14;;;;;;;0.80;0.80;;;;;;;22.57;55.93;96417.09;10488761;28;20044;-29
2022/08/26 06:30:38;;;;;;;0.70;0.70;;;;;;;22.53;55.89;96422.28;10487978;28;20085;-29
2022/08/26 06:35:40;;;;;;;0.90;0.90;;;;;;;22.52;55.82;96412.97;10491249;28;20097;-29
2022/08/26 06:40:49;;;;;;;0.70;0.70;;;;;;;22.54;56.08;96414.63;10488234;28;20039;-31
2022/08/26 06:45:50;;;;;;;0.60;0.60;;;;;;;22.68;56.17;96424.53;10491552;28;20032;-29
2022/08/26 06:51:05;;;;;;;0.32;0.32;;;;;;;22.82;55.40;96425.91;10489784;28;20407;-28
2022/08/26 06:56:07;;;;;;;1.75;0.50;;;;;;;22.69;56.02;96429.63;10488126;28;20028;-29
2022/08/26 07:01:20;;;;;;;0.93;0.93;;;;;;;22.62;55.83;96427.22;10487240;28;20082;-29
2022/08/26 07:06:22;;;;;;;0.80;0.80;;;;;;;22.54;55.75;96431.63;10488852;28;20028;-29
2022/08/26 07:11:22;;;;;;;1.00;0.80;;;;;;;22.51;55.69;96430.00;10488147;28;20029;-30
2022/08/26 07:16:24;;;;;;;0.50;0.50;;;;;;;22.49;55.98;96429.16;10487703;28;20487;-29
2022/08/26 07:21:24;;;;;;;0.57;0.52;;;;;;;22.43;56.05;96425.91;10489721;28;20035;-30
2022/08/26 07:26:27;;;;;;;0.47;0.47;;;;;;;22.46;55.89;96433.50;10486051;28;20040;-29
2022/08/26 07:31:31;;;;;;;0.50;0.50;;;;;;;22.63;56.08;96439.94;10487706;28;20514;-29
2022/08/26 07:36:32;;;;;;;0.65;0.60;;;;;;;22.75;55.32;96433.75;10489171;28;20182;-28
2022/08/26 07:41:32;;;;;;;0.70;0.70;;;;;;;22.59;55.91;96438.34;10485146;28;20081;-29
2022/08/26 07:46:33;;;;;;;0.60;0.60;;;;;;;22.51;55.81;96435.09;10487842;28;20032;-29
2022/08/26 07:51:34;;;;;;;0.65;0.55;;;;;;;22.51;56.06;96440.22;10485481;28;20267;-29
2022/08/26 07:56:34;;;;;;;0.50;0.50;;;;;;;22.49;55.76;96436.81;10486240;28;20029;-31
2022/08/26 08:01:35;;;;;;;0.52;0.52;;;;;;;22.48;55.79;96440.25;10488155;28;20039;-29
2022/08/26 08:06:36;;;;;;;0.63;0.63;;;;;;;22.48;55.83;96429.22;10487293;28;20033;-29
2022/08/26 08:11:37;;;;;;;0.50;0.50;;;;;;;22.47;55.91;96433.47;10485889;28;20086;-28
2022/08/26 08:16:37;;;;;;;0.50;0.50;;;;;;;22.66;55.95;96436.50;10484920;28;20085;-29
2022/08/26 08:21:39;;;;;;;0.50;0.50;;;;;;;22.76;55.61;96441.38;10488108;28;20037;-30
2022/08/26 08:26:40;;;;;;;0.60;0.45;;;;;;;22.55;55.86;96425.69;10487635;28;20490;-30
2022/08/26 08:31:40;;;;;;;0.50;0.50;;;;;;;22.55;55.83;96438.44;10495277;28;20111;-31
2022/08/26 08:36:40;;;;;;;0.63;0.63;;;;;;;22.51;55.75;96442.75;10496593;28;20032;-29
2022/08/26 08:42:09;;;;;;;0.40;0.40;;;;;;;22.49;55.75;96436.81;10492811;28;20514;-29
2022/08/26 08:47:37;;;;;;;0.60;0.60;;;;;;;22.48;55.80;96445.34;10490669;28;20039;-29
2022/08/26 08:52:42;;;;;;;0.45;0.45;;;;;;;22.46;55.81;96439.44;10491272;28;20483;-30
2022/08/26 08:57:48;;;;;;;0.43;0.43;;;;;;;22.48;56.17;96435.16;10495283;28;20111;-29
2022/08/26 09:02:59;;;;;;;0.50;0.50;;;;;;;22.72;55.95;96438.94;10494162;28;20562;-30
2022/08/26 09:08:05;;;;;;;0.60;0.50;;;;;;;22.74;55.73;96438.00;10493209;28;20072;-30
2022/08/26 09:13:12;;;;;;;0.60;0.60;;;;;;;22.62;56.02;96438.28;10490253;28;20039;-29
2022/08/26 09:18:49;;;;;;;0.60;0.50;;;;;;;22.56;55.70;96438.38;10493696;28;20041;-29
2022/08/26 09:23:52;;;;;;;0.63;0.63;;;;;;;22.54;55.82;96435.03;10473494;28;20055;-29
2022/08/26 09:29:03;;;;;;;0.60;0.60;;;;;;;22.54;56.02;96437.59;10494410;28;20063;-30
2022/08/26 09:34:15;;;;;;;0.52;0.52;;;;;;;22.55;56.09;96446.09;10486706;28;20028;-30
2022/08/26 09:39:38;;;;;;;0.60;0.60;;;;;;;22.54;55.82;96435.03;10490052;28;20411;-29
2022/08/26 09:45:04;;;;;;;0.50;0.50;;;;;;;22.66;56.30;96439.88;10491868;28;20434;-29
2022/08/26 09:50:22;;;;;;;0.45;0.45;;;;;;;22.80;55.57;96442.97;10492207;28;20052;-29
2022/08/26 09:55:22;;;;;;;0.40;0.40;;;;;;;22.66;56.05;96427.09;10489188;28;20483;-29
2022/08/26 10:00:54;;;;;;;0.50;0.50;;;;;;;22.58;55.88;96426.44;10493154;28;20036;-31
2022/08/26 10:06:18;;;;;;;0.50;0.50;;;;;;;22.55;55.74;96418.84;10491984;28;20036;-29
2022/08/26 10:11:45;;;;;;;0.73;0.65;;;;;;;22.54;55.99;96417.16;10490038;28;20067;-29
2022/08/26 10:16:56;;;;;;;0.57;0.57;;;;;;;22.53;56.10;96409.53;10489288;28;20029;-29
2022/08/26 10:22:03;;;;;;;0.57;0.57;;;;;;;22.53;55.83;96412.94;10492187;28;20048;-29
2022/08/26 10:27:32;;;;;;;0.70;0.70;;;;;;;22.54;56.23;96403.56;10488599;28;20029;-28
2022/08/26 10:32:38;;;;;;;0.50;0.50;;;;;;;22.74;55.94;96397.16;10485561;28;20667;-29
2022/08/26 10:37:48;;;;;;;0.40;0.40;;;;;;;22.77;55.68;96391.16;10485596;28;20029;-28
2022/08/26 10:43:01;;;;;;;0.40;0.40;;;;;;;22.63;55.90;96388.91;10490828;28;20060;-30
2022/08/26 10:48:08;;;;;;;0.60;0.60;;;;;;;22.59;55.85;96392.41;10487787;28;20070;-29
2022/08/26 10:53:30;;;;;;;0.73;0.73;;;;;;;22.52;55.92;96390.84;10487665;28;20032;-29
2022/08/26 10:58:46;;;;;;;0.60;0.60;;;;;;;22.55;55.81;96385.69;10490380;28;20036;-30
2022/08/26 11:04:02;;;;;;;;;;;;;;;22.52;55.90;96375.53;10486878;28;20048;-29
2022/08/26 11:09:07;;;;;;;0.77;0.70;;;;;;;22.54;55.82;96381.44;10488065;28;19912;-29
2022/08/26 11:14:29;;;;;;;0.60;0.60;;;;;;;22.63;56.43;96377.84;10489463;28;20016;-29
2022/08/26 11:19:29;;;;;;;0.50;0.50;;;;;;;22.80;55.83;96370.66;10487747;28;20055;-29
2022/08/26 11:24:53;;;;;;;0.50;0.50;;;;;;;22.72;56.08;96375.94;10486736;28;20521;-29
2022/08/26 11:30:04;;;;;;;0.60;0.60;;;;;;;22.63;56.04;96371.03;10486495;28;20032;-29
2022/08/26 11:35:05;;;;;;;0.70;0.68;;;;;;;22.61;55.98;96370.25;10486730;28;20632;-29
2022/08/26 11:40:11;;;;;;;0.77;0.77;;;;;;;22.59;56.02;96377.09;10486284;28;20119;-28
2022/08/26 11:45:23;;;;;;;0.70;0.70;;;;;;;22.61;55.96;96375.34;10485492;28;20037;-29
2022/08/26 11:50:27;;;;;;;0.93;0.93;;;;;;;22.63;56.46;96371.03;10487850;28;20029;-29
2022/08/26 11:55:29;;;;;;;0.93;0.90;;;;;;;22.60;56.09;96368.56;10486206;28;20090;-29
2022/08/26 12:00:35;;;;;;;0.50;0.50;;;;;;;22.77;56.27;96373.28;10488501;28;20036;-30
2022/08/26 12:05:42;;;;;;;0.30;0.30;;;;;;;22.86;55.39;96379.03;10482817;28;20032;-29
2022/08/26 12:10:43;;;;;;;0.50;0.50;;;;;;;22.73;56.11;96382.72;10486646;28;20529;-29
2022/08/26 12:15:55;;;;;;;0.60;0.60;;;;;;;22.66;56.00;96372.69;10488259;28;20066;-30
2022/08/26 12:21:08;;;;;;;0.77;0.75;;;;;;;22.61;55.98;96372.78;10485546;28;20406;-29
2022/08/26 12:26:12;;;;;;;0.52;0.52;;;;;;;22.61;55.89;96370.25;10485278;28;20028;-29
2022/08/26 12:31:27;;;;;;;0.60;0.60;;;;;;;22.60;55.77;96360.91;10485294;28;20139;-29
2022/08/26 12:36:30;;;;;;;0.98;0.77;;;;;;;22.59;55.93;96361.78;10487915;28;20051;-31
2022/08/26 12:41:42;;;;;;;0.88;0.88;;;;;;;22.62;56.29;96358.31;10440154;28;20088;-29
2022/08/26 12:46:42;;;;;;;0.60;0.60;;;;;;;22.77;56.11;96356.28;10402440;28;20423;-29
2022/08/26 12:51:48;;;;;;;0.50;0.50;;;;;;;22.83;55.51;96373.97;10403761;28;20030;-29
2022/08/26 12:56:49;;;;;;;0.60;0.60;;;;;;;22.74;56.09;96369.09;10400907;28;20034;-30
2022/08/26 13:01:51;;;;;;;0.60;0.60;;;;;;;22.65;55.78;96361.63;10403630;28;20041;-29
2022/08/26 13:07:21;;;;;;;1.13;1.02;;;;;;;22.61;55.88;96367.69;10404881;28;20033;-30
2022/08/26 13:12:32;;;;;;;1.00;0.90;;;;;;;22.65;56.34;96356.53;10406039;28;20037;-29
2022/08/26 13:17:34;;;;;;;0.80;0.80;;;;;;;22.62;56.29;96343.84;10411249;28;20041;-29
2022/08/26 13:22:35;;;;;;;0.80;0.80;;;;;;;22.61;56.05;96349.84;10407366;28;20042;-30
2022/08/26 13:27:35;;;;;;;1.70;1.00;;;;;;;22.66;57.24;96342.06;10411637;28;20142;-30
2022/08/26 13:32:36;;;;;;;0.60;0.60;;;;;;;22.84;56.02;96328.88;10408705;28;20045;-31
2022/08/26 13:37:36;;;;;;;0.50;0.50;;;;;;;22.84;55.78;96316.97;10408179;28;20410;-29
2022/08/26 13:42:37;;;;;;;0.80;0.80;;;;;;;22.71;56.02;96315.56;10411395;28;20511;-29
2022/08/26 13:47:37;;;;;;;0.70;0.70;;;;;;;22.67;55.97;96324.19;10409666;28;20404;-29
2022/08/26 13:52:38;;;;;;;1.27;1.00;;;;;;;22.64;55.84;96318.31;10409665;28;20043;-30
2022/08/26 13:57:38;;;;;;;1.08;0.90;;;;;;;22.61;55.87;96309.00;10410631;28;20128;-30
2022/08/26 14:02:39;;;;;;;1.20;1.10;;;;;;;22.62;56.01;96325.13;10408972;28;20048;-29
2022/08/26 14:07:39;;;;;;;1.07;0.97;;;;;;;22.60;56.04;96312.44;10409011;28;20030;-29
2022/08/26 14:12:40;;;;;;;1.40;1.27;;;;;;;22.74;58.17;96301.91;10409815;28;20087;-29
2022/08/26 14:17:41;;;;;;;3.90;0.87;;;;;;;22.93;57.73;96298.03;10408786;28;20147;-29
2022/08/26 14:22:43;;;;;;;0.77;0.77;;;;;;;22.95;56.95;96289.47;10406359;28;20189;-29
2022/08/26 14:27:43;;;;;;;1.20;1.10;;;;;;;22.95;57.75;96289.47;10409252;28;20034;-28
2022/08/26 14:32:51;;;;;;;1.20;1.10;;;;;;;22.96;58.13;96280.94;10405887;28;20044;-30
2022/08/26 14:37:52;;;;;;;1.20;1.13;;;;;;;22.94;58.18;96274.19;10405896;28;20508;-32
2022/08/26 14:42:53;;;;;;;1.35;1.25;;;;;;;22.95;58.29;96271.59;10408604;28;20124;-28
2022/08/26 14:47:55;;;;;;;1.13;1.10;;;;;;;22.94;58.32;96262.25;10407502;28;20045;-28
2022/08/26 14:58:14;;;;;;;0.80;0.80;;;;;;;23.00;56.85;96240.84;10408742;28;20036;-29
2022/08/26 15:03:14;;;;;;;0.80;0.80;;;;;;;23.08;56.63;96247.41;10406251;28;20099;-29
2022/08/26 15:08:15;;;;;;;1.17;1.07;;;;;;;23.04;57.10;96247.53;10406211;28;20116;-29
2022/08/26 15:13:16;;;;;;;1.30;1.20;;;;;;;23.02;58.04;96259.50;10407136;28;20056;-28
2022/08/26 15:18:16;;;;;;;1.30;1.20;;;;;;;23.01;58.28;96263.78;10404483;28;20041;-30
2022/08/26 15:23:16;;;;;;;1.23;1.13;;;;;;;23.02;58.40;96274.81;10405928;28;20454;-30
2022/08/26 15:28:17;;;;;;;1.20;1.10;;;;;;;23.02;58.54;96291.00;10407386;28;20531;-29
2022/08/26 15:33:17;;;;;;;1.50;1.40;;;;;;;23.05;58.60;96305.38;10405404;28;20026;-29
2022/08/26 15:38:17;;;;;;;1.30;1.20;;;;;;;23.08;58.54;96341.91;10402756;28;20087;-29
2022/08/26 15:43:18;;;;;;;0.97;0.83;;;;;;;23.09;56.79;96358.06;10406313;28;20033;-29
2022/08/26 15:48:20;;;;;;;0.60;0.60;;;;;;;23.14;56.07;96353.72;10405312;28;20094;-29
2022/08/26 15:53:21;;;;;;;0.60;0.60;;;;;;;22.96;56.99;96347.31;10404229;28;20037;-29
2022/08/26 15:58:23;;;;;;;1.67;1.58;;;;;;;22.86;57.74;96353.50;10408083;28;20184;-30
2022/08/26 16:03:23;;;;;;;1.40;1.30;;;;;;;22.73;56.72;96324.03;10406146;28;20117;-29
2022/08/26 16:08:24;;;;;;;1.20;1.10;;;;;;;22.71;56.16;96341.09;10405898;28;20112;-30
2022/08/26 16:13:24;;;;;;;0.70;0.70;;;;;;;22.66;56.38;96355.66;10406946;28;20044;-29
2022/08/26 16:18:25;;;;;;;0.50;0.50;;;;;;;22.61;56.09;96360.03;10403818;28;20705;-30
2022/08/26 16:23:25;;;;;;;0.50;0.50;;;;;;;22.60;56.23;96360.91;10403679;28;20295;-29
2022/08/26 16:28:26;;;;;;;1.10;0.90;;;;;;;22.77;56.76;96363.94;10405460;28;20041;-29
2022/08/26 16:33:27;;;;;;;0.70;0.70;;;;;;;22.93;56.15;96354.19;10403169;28;20284;-29
2022/08/26 16:38:27;;;;;;;0.55;0.55;;;;;;;22.80;56.41;96343.44;10402319;28;20437;-29
2022/08/26 16:43:28;;;;;;;1.03;0.70;;;;;;;22.72;56.39;96341.94;10404461;28;20048;-29
2022/08/26 16:48:28;;;;;;;1.03;0.93;;;;;;;22.66;56.28;96353.09;10408824;28;20292;-29
2022/08/26 16:53:28;;;;;;;0.80;0.80;;;;;;;22.66;56.12;96363.31;10411505;28;20041;-29
2022/08/26 16:58:29;;;;;;;0.70;0.70;;;;;;;22.63;56.07;96363.38;10413459;28;20051;-29
2022/08/26 17:03:29;;;;;;;1.73;0.73;;;;;;;22.62;56.29;96365.97;10411170;28;20471;-29
2022/08/26 17:08:30;;;;;;;0.70;0.70;;;;;;;22.65;56.32;96376.13;10410809;28;20121;-29
2022/08/26 17:13:30;;;;;;;0.70;0.70;;;;;;;22.79;56.61;96385.16;10411720;28;20037;-29
2022/08/26 17:18:32;;;;;;;0.50;0.50;;;;;;;22.92;56.00;96391.66;10410397;28;20049;-29
2022/08/26 17:23:33;;;;;;;0.60;0.60;;;;;;;22.77;56.55;96397.13;10408317;28;20076;-30
2022/08/26 17:28:33;;;;;;;0.85;0.85;;;;;;;22.69;56.29;96393.88;10410211;28;20061;-29
2022/08/26 17:33:34;;;;;;;0.90;0.90;;;;;;;22.67;56.22;96390.53;10406422;28;20494;-30
2022/08/26 17:38:36;;;;;;;1.17;1.08;;;;;;;22.67;56.10;96390.53;10408648;28;20197;-29
2022/08/26 17:43:38;;;;;;;1.00;0.98;;;;;;;22.65;56.15;96402.47;10410567;28;20060;-29
2022/08/26 17:48:39;;;;;;;1.10;1.00;;;;;;;22.64;56.09;96390.59;10407535;28;20041;-30
2022/08/26 17:53:40;;;;;;;1.40;0.88;;;;;;;22.63;56.14;96391.47;10408050;28;20422;-29
2022/08/26 17:58:42;;;;;;;0.85;0.85;;;;;;;22.80;56.49;96391.94;10409977;28;20038;-29
2022/08/26 18:03:42;;;;;;;0.70;0.60;;;;;;;22.93;56.06;96398.47;10409387;28;20033;-29
2022/08/26 18:08:43;;;;;;;0.65;0.65;;;;;;;22.78;56.49;96409.00;10408760;28;20029;-31
2022/08/26 18:13:44;;;;;;;1.17;0.82;;;;;;;22.72;56.18;96409.13;10410011;28;20048;-30
2022/08/26 18:18:46;;;;;;;0.95;0.95;;;;;;;22.70;56.39;96413.44;10409159;28;20053;-30
2022/08/26 18:23:47;;;;;;;1.67;1.25;;;;;;;22.67;56.18;96418.59;10406560;28;20551;-28
2022/08/26 18:28:48;;;;;;;1.10;1.00;;;;;;;22.66;56.25;96413.53;10409861;28;20468;-29
2022/08/26 18:33:48;;;;;;;1.40;1.30;;;;;;;22.65;56.10;96402.47;10405694;28;20120;-29
2022/08/26 18:38:50;;;;;;;0.97;0.97;;;;;;;22.63;56.25;96388.91;10406214;28;20034;-28
2022/08/26 18:43:52;;;;;;;0.90;0.90;;;;;;;22.84;56.51;96398.66;10408417;28;20322;-30
2022/08/26 18:48:54;;;;;;;0.60;0.60;;;;;;;22.93;56.00;96434.19;10405371;28;20037;-30
2022/08/26 18:53:55;;;;;;;1.20;1.10;;;;;;;22.92;57.10;96482.72;10406321;28;20029;-30
2022/08/26 18:58:57;;;;;;;1.45;1.20;;;;;;;22.83;56.63;96442.91;10408720;28;20037;-29
2022/08/26 19:04:00;;;;;;;1.27;1.17;;;;;;;22.74;56.47;96432.06;10407397;28;20495;-29
2022/08/26 19:09:03;;;;;;;0.90;0.90;;;;;;;22.68;56.20;96422.84;10405949;28;20507;-30
2022/08/26 19:14:09;;;;;;;0.93;0.93;;;;;;;22.66;56.17;96457.75;10407211;28;20044;-28
2022/08/26 19:19:09;;;;;;;1.67;1.58;;;;;;;22.71;56.55;96499.34;10406176;28;20488;-29
2022/08/26 19:24:16;;;;;;;2.38;1.23;;;;;;;22.67;56.85;96518.16;10403847;28;20120;-29
2022/08/26 19:29:16;;;;;;;;;;;;;;;22.89;56.41;96521.94;10408015;28;20064;-30
2022/08/26 19:34:16;;;;;;;0.60;0.60;;;;;;;22.92;56.36;96565.25;10405769;28;19999;-28
2022/08/26 19:39:18;;;;;;;1.20;1.10;;;;;;;22.81;56.53;96574.84;10403945;28;20515;-30
2022/08/26 19:49:39;;;;;;;1.40;1.30;;;;;;;22.68;56.14;96572.56;10405907;28;20041;-31
2022/08/26 19:54:40;;;;;;;0.83;0.83;;;;;;;22.66;56.12;96567.47;10404572;28;20042;-29
2022/08/26 19:59:41;;;;;;;1.10;1.00;;;;;;;22.61;56.17;96553.97;10406572;28;20041;-29
2022/08/26 20:04:41;;;;;;;1.27;0.93;;;;;;;22.61;56.19;96537.81;10403683;28;20030;-29
2022/08/26 20:09:41;;;;;;;1.33;1.23;;;;;;;22.65;57.29;96542.81;10405027;28;20025;-29
2022/08/26 20:14:42;;;;;;;0.77;0.77;;;;;;;22.86;56.47;96542.44;10406031;28;20496;-29
2022/08/26 20:25:02;;;;;;;0.63;0.63;;;;;;;22.73;56.17;96528.22;10399150;28;20029;-30
2022/08/26 20:30:06;;;;;;;0.70;0.70;;;;;;;22.69;56.22;96528.31;10405640;28;20033;-30
2022/08/26 20:35:10;;;;;;;1.08;1.02;;;;;;;22.66;56.21;96525.81;10403861;28;20044;-29
2022/08/26 20:40:13;;;;;;;1.42;1.15;;;;;;;22.63;56.16;96526.72;10401919;28;20116;-29
2022/08/26 20:45:13;;;;;;;0.88;0.88;;;;;;;22.63;56.00;96528.41;10405718;28;20064;-31
2022/08/26 20:50:14;;;;;;;1.43;1.33;;;;;;;22.60;56.16;96521.69;10403424;28;20125;-29
2022/08/26 20:55:14;;;;;;;0.80;0.70;;;;;;;22.67;56.96;96520.69;10400488;28;20056;-30
2022/08/26 21:00:17;;;;;;;0.90;0.90;;;;;;;22.88;56.62;96507.47;10404024;28;20034;-29
2022/08/26 21:05:17;;;;;;;0.70;0.70;;;;;;;22.81;56.48;96498.25;10404958;28;20553;-29
2022/08/26 21:10:18;;;;;;;0.90;0.90;;;;;;;22.71;56.24;96491.69;10402544;28;20029;-28
2022/08/26 21:15:18;;;;;;;1.10;1.00;;;;;;;22.69;56.22;96495.13;10404725;28;20099;-29
2022/08/26 21:20:19;;;;;;;0.90;0.90;;;;;;;22.61;56.05;96487.63;10401225;28;20034;-30
2022/08/26 21:25:20;;;;;;;0.82;0.82;;;;;;;22.65;56.10;96496.06;10401363;28;20079;-30
2022/08/26 21:30:21;;;;;;;1.45;1.35;;;;;;;22.65;56.22;96488.41;10404027;28;20523;-29
2022/08/26 21:35:21;;;;;;;1.52;1.42;;;;;;;22.64;56.52;96491.84;10406836;28;20094;-29
2022/08/26 21:40:22;;;;;;;1.03;0.97;;;;;;;22.72;57.06;96480.59;10410026;28;20056;-29
2022/08/26 21:45:22;;;;;;;0.60;0.60;;;;;;;22.85;56.44;96481.19;10411565;28;20272;-30
2022/08/26 21:50:23;;;;;;;0.80;0.80;;;;;;;22.83;56.49;96488.84;10407640;28;20578;-30
2022/08/26 21:55:23;;;;;;;0.87;0.87;;;;;;;22.70;56.19;96496.78;10408469;28;20037;-30
2022/08/26 22:00:24;;;;;;;1.20;1.10;;;;;;;22.67;56.14;96513.03;10410751;28;20539;-29
2022/08/26 22:05:24;;;;;;;0.90;0.90;;;;;;;22.64;56.02;96528.38;10409643;28;20037;-29
2022/08/26 22:10:24;;;;;;;0.70;0.70;;;;;;;22.62;56.19;96519.06;10408798;28;20033;-29
2022/08/26 22:15:26;;;;;;;1.27;1.17;;;;;;;22.62;56.17;96516.53;10410284;28;20041;-30
2022/08/26 22:20:26;;;;;;;0.70;0.70;;;;;;;22.60;56.26;96521.69;10406420;28;20123;-30
2022/08/26 22:25:27;;;;;;;1.00;1.00;;;;;;;22.73;56.82;96528.22;10409052;28;20048;-30
2022/08/26 22:30:27;;;;;;;1.07;0.80;;;;;;;22.84;56.41;96518.66;10409330;28;20121;-30
2022/08/26 22:35:28;;;;;;;0.70;0.70;;;;;;;22.79;56.40;96530.66;10406484;28;20029;-29
2022/08/26 22:40:28;;;;;;;0.90;0.90;;;;;;;22.70;56.30;96533.38;10405657;28;20041;-30
2022/08/26 22:45:30;;;;;;;0.90;0.90;;;;;;;22.61;56.23;96530.16;10410297;28;20116;-28
2022/08/26 22:50:31;;;;;;;1.00;0.90;;;;;;;22.63;56.21;96542.03;10408433;28;20091;-29
2022/08/26 22:55:31;;;;;;;0.50;0.50;;;;;;;22.60;55.92;96541.25;10409372;28;20029;-29
2022/08/26 23:00:33;;;;;;;1.37;0.80;;;;;;;22.60;56.20;96552.31;10410156;28;20451;-28
2022/08/26 23:05:33;;;;;;;1.30;1.20;;;;;;;22.55;56.09;96543.88;10405184;28;20491;-29
2022/08/26 23:10:35;;;;;;;0.95;0.90;;;;;;;22.70;56.61;96543.59;10405605;28;20057;-30
2022/08/26 23:15:37;;;;;;;0.80;0.73;;;;;;;22.88;56.14;96543.22;10407794;28;20026;-30
2022/08/26 23:20:37;;;;;;;0.63;0.63;;;;;;;22.77;56.47;96534.09;10405448;28;20033;-28
2022/08/26 23:25:38;;;;;;;0.80;0.80;;;;;;;22.70;56.33;96533.38;10404518;28;20041;-29
2022/08/26 23:30:38;;;;;;;1.23;1.13;;;;;;;22.65;56.12;96529.25;10407490;28;20033;-31
2022/08/26 23:35:39;;;;;;;0.90;0.90;;;;;;;22.63;56.10;96521.59;10405845;28;20037;-30
2022/08/26 23:40:40;;;;;;;0.80;0.80;;;;;;;22.63;56.18;96525.84;10403680;28;20049;-29
2022/08/26 23:45:41;;;;;;;0.90;0.90;;;;;;;22.61;56.12;96520.81;10406600;28;20050;-29
2022/08/26 23:56:00;;;;;;;1.02;0.80;;;;;;;22.77;56.66;96518.78;10402036;28;20084;-29
